createdAt,value
2019-02-10T00:00:55.006Z,96812.00
2019-02-10T00:03:26.252Z,96819.00
2019-02-10T00:05:57.821Z,96813.00
2019-02-10T00:08:28.867Z,96816.00
2019-02-10T00:10:59.958Z,96804.00
2019-02-10T00:13:33.824Z,96799.00
2019-02-10T00:16:22.375Z,96798.00
2019-02-10T00:18:53.587Z,96793.00
2019-02-10T00:21:24.670Z,96792.00
2019-02-10T00:23:55.814Z,96786.00
2019-02-10T00:26:28.468Z,96784.00
2019-02-10T00:28:59.586Z,96776.00
2019-02-10T00:31:30.746Z,96777.00
2019-02-10T00:34:01.864Z,96789.00
2019-02-10T00:36:33.707Z,96779.00
2019-02-10T00:39:09.432Z,96787.00
2019-02-10T00:41:40.519Z,96785.00
2019-02-10T00:44:11.655Z,96790.00
2019-02-10T00:46:42.665Z,96786.00
2019-02-10T00:49:13.698Z,96780.00
2019-02-10T00:51:44.866Z,96789.00
2019-02-10T00:54:15.937Z,96797.00
2019-02-10T00:56:47.030Z,96788.00
2019-02-10T00:59:18.754Z,96794.00
2019-02-10T01:01:49.952Z,96769.00
2019-02-10T01:04:21.075Z,96766.00
2019-02-10T01:06:52.167Z,96759.00
2019-02-10T01:09:23.417Z,96759.00
2019-02-10T01:11:54.583Z,96762.00
2019-02-10T01:14:25.725Z,96771.00
2019-02-10T01:16:57.163Z,96749.00
2019-02-10T01:19:28.350Z,96752.00
2019-02-10T01:21:59.563Z,96759.00
2019-02-10T01:24:30.861Z,96759.00
2019-02-10T01:27:02.352Z,96748.00
2019-02-10T01:29:33.643Z,96728.00
2019-02-10T01:32:04.877Z,96749.00
2019-02-10T01:34:36.292Z,96735.00
2019-02-10T01:37:07.519Z,96731.00
2019-02-10T01:39:38.633Z,96733.00
2019-02-10T01:42:09.734Z,96732.00
2019-02-10T01:44:41.370Z,96716.00
2019-02-10T01:47:12.540Z,96716.00
2019-02-10T01:49:43.680Z,96713.00
2019-02-10T01:52:14.761Z,96715.00
2019-02-10T01:54:46.203Z,96708.00
2019-02-10T01:57:17.832Z,96712.00
2019-02-10T01:59:48.952Z,96711.00
2019-02-10T02:02:20.118Z,96711.00
2019-02-10T02:04:51.232Z,96695.00
2019-02-10T02:07:22.684Z,96695.00
2019-02-10T02:09:53.894Z,96680.00
2019-02-10T02:12:25.255Z,96670.00
2019-02-10T02:14:56.445Z,96663.00
2019-02-10T02:17:27.866Z,96649.00
2019-02-10T02:19:59.059Z,96652.00
2019-02-10T02:22:30.345Z,96652.00
2019-02-10T02:25:01.575Z,96645.00
2019-02-10T02:27:33.085Z,96637.00
2019-02-10T02:30:05.341Z,96622.00
2019-02-10T02:32:36.573Z,96620.00
2019-02-10T02:35:07.855Z,96611.00
2019-02-10T02:37:39.063Z,96618.00
2019-02-10T02:40:11.688Z,96608.00
2019-02-10T02:42:42.961Z,96595.00
2019-02-10T02:45:14.174Z,96611.00
2019-02-10T02:47:45.253Z,96580.00
2019-02-10T02:50:16.518Z,96571.00
2019-02-10T02:52:47.603Z,96567.00
2019-02-10T02:55:18.777Z,96560.00
2019-02-10T02:57:50.453Z,96567.00
2019-02-10T03:00:22.024Z,96560.00
2019-02-10T03:02:53.201Z,96560.00
2019-02-10T03:05:24.425Z,96555.00
2019-02-10T03:07:55.919Z,96558.00
2019-02-10T03:10:27.602Z,96537.00
2019-02-10T03:12:58.682Z,96544.00
2019-02-10T03:15:29.732Z,96530.00
2019-02-10T03:18:00.817Z,96536.00
2019-02-10T03:20:32.482Z,96531.00
2019-02-10T03:23:03.572Z,96548.00
2019-02-10T03:25:34.978Z,96540.00
2019-02-10T03:28:06.140Z,96531.00
2019-02-10T03:30:37.418Z,96515.00
2019-02-10T03:33:08.446Z,96503.00
2019-02-10T03:35:39.551Z,96510.00
2019-02-10T03:38:10.729Z,96503.00
2019-02-10T03:40:41.772Z,96499.00
2019-02-10T03:43:12.786Z,96495.00
2019-02-10T03:45:44.103Z,96485.00
2019-02-10T03:48:15.357Z,96486.00
2019-02-10T03:50:46.598Z,96484.00
2019-02-10T03:53:17.693Z,96471.00
2019-02-10T03:55:48.879Z,96476.00
2019-02-10T03:58:20.321Z,96468.00
2019-02-10T04:00:51.662Z,96463.00
2019-02-10T04:03:22.758Z,96461.00
2019-02-10T04:05:53.948Z,96474.00
2019-02-10T04:08:25.327Z,96466.00
2019-02-10T04:10:56.437Z,96451.00
2019-02-10T04:13:27.918Z,96452.00
2019-02-10T04:15:59.049Z,96438.00
2019-02-10T04:18:30.073Z,96436.00
2019-02-10T04:21:01.211Z,96426.00
2019-02-10T04:23:32.288Z,96422.00
2019-02-10T04:26:03.403Z,96419.00
2019-02-10T04:28:34.467Z,96399.00
2019-02-10T04:31:05.727Z,96401.00
2019-02-10T04:33:36.895Z,96389.00
2019-02-10T04:36:08.157Z,96392.00
2019-02-10T04:38:39.551Z,96372.00
2019-02-10T04:41:10.741Z,96383.00
2019-02-10T04:43:41.903Z,96371.00
2019-02-10T04:46:13.028Z,96372.00
2019-02-10T04:48:44.216Z,96363.00
2019-02-10T04:51:15.415Z,96370.00
2019-02-10T04:53:46.595Z,96371.00
2019-02-10T04:56:19.800Z,96360.00
2019-02-10T04:58:50.961Z,96364.00
2019-02-10T05:01:22.102Z,96356.00
2019-02-10T05:03:53.642Z,96339.00
2019-02-10T05:06:24.839Z,96338.00
2019-02-10T05:08:56.740Z,96326.00
2019-02-10T05:11:27.933Z,96318.00
2019-02-10T05:13:59.016Z,96314.00
2019-02-10T05:16:30.130Z,96308.00
2019-02-10T05:19:01.147Z,96322.00
2019-02-10T05:21:32.364Z,96310.00
2019-02-10T05:24:03.952Z,96308.00
2019-02-10T05:26:35.146Z,96292.00
2019-02-10T05:29:06.316Z,96308.00
2019-02-10T05:31:38.506Z,96310.00
2019-02-10T05:34:09.649Z,96289.00
2019-02-10T05:36:40.849Z,96278.00
2019-02-10T05:39:11.864Z,96264.00
2019-02-10T05:41:43.342Z,96246.00
2019-02-10T05:44:14.442Z,96234.00
2019-02-10T05:46:45.728Z,96218.00
2019-02-10T05:49:17.149Z,96202.00
2019-02-10T05:51:48.322Z,96214.00
2019-02-10T05:54:19.362Z,96214.00
2019-02-10T05:56:50.474Z,96233.00
2019-02-10T05:59:21.922Z,96227.00
2019-02-10T06:02:17.741Z,96217.00
2019-02-10T06:04:48.821Z,96219.00
2019-02-10T06:07:19.917Z,96197.00
2019-02-10T06:09:50.958Z,96206.00
2019-02-10T06:12:22.078Z,96194.00
2019-02-10T06:14:53.249Z,96203.00
2019-02-10T06:17:24.644Z,96180.00
2019-02-10T06:19:56.088Z,96174.00
2019-02-10T06:22:27.544Z,96172.00
2019-02-10T06:24:58.590Z,96173.00
2019-02-10T06:27:29.717Z,96167.00
2019-02-10T06:30:01.153Z,96168.00
2019-02-10T06:32:32.358Z,96163.00
2019-02-10T06:35:03.534Z,96138.00
2019-02-10T06:37:34.747Z,96140.00
2019-02-10T06:40:08.227Z,96130.00
2019-02-10T06:42:39.709Z,96142.00
2019-02-10T06:45:13.557Z,96133.00
2019-02-10T06:47:44.950Z,96122.00
2019-02-10T06:50:16.456Z,96126.00
2019-02-10T06:52:47.790Z,96122.00
2019-02-10T06:55:19.842Z,96112.00
2019-02-10T06:57:50.879Z,96124.00
2019-02-10T07:00:39.933Z,96125.00
2019-02-10T07:03:46.986Z,96124.00
2019-02-10T07:06:18.159Z,96117.00
2019-02-10T07:08:49.433Z,96110.00
2019-02-10T07:11:20.999Z,96102.00
2019-02-10T07:13:59.657Z,96093.00
2019-02-10T07:17:48.979Z,96079.00
2019-02-10T07:20:57.654Z,96064.00
2019-02-10T07:24:31.048Z,96045.00
2019-02-10T07:27:31.654Z,96034.00
2019-02-10T07:30:47.187Z,96012.00
2019-02-10T07:34:20.642Z,96015.00
2019-02-10T07:37:47.283Z,96033.00
2019-02-10T07:41:17.223Z,96019.00
2019-02-10T07:44:51.146Z,96005.00
2019-02-10T07:48:37.904Z,95999.00
2019-02-10T07:52:31.420Z,96000.00
2019-02-10T07:56:23.360Z,95990.00
2019-02-10T07:59:36.288Z,95992.00
2019-02-10T08:03:25.668Z,95986.00
2019-02-10T08:06:59.062Z,95984.00
2019-02-10T08:10:23.389Z,95970.00
2019-02-10T08:13:28.795Z,95970.00
2019-02-10T08:17:42.945Z,95957.00
2019-02-10T08:21:19.289Z,95960.00
2019-02-10T08:24:43.818Z,95946.00
2019-02-10T08:28:24.251Z,95948.00
2019-02-10T08:31:44.822Z,95930.00
2019-02-10T08:34:49.218Z,95916.00
2019-02-10T08:38:10.490Z,95901.00
2019-02-10T08:41:29.334Z,95914.00
2019-02-10T08:44:43.154Z,95916.00
2019-02-10T08:48:36.787Z,95907.00
2019-02-10T08:52:04.151Z,95894.00
2019-02-10T08:54:35.395Z,95873.00
2019-02-10T08:57:06.807Z,95861.00
2019-02-10T08:59:38.502Z,95862.00
2019-02-10T09:02:09.638Z,95845.00
2019-02-10T09:04:40.858Z,95854.00
2019-02-10T09:07:11.965Z,95834.00
2019-02-10T09:09:43.493Z,95873.00
2019-02-10T09:12:14.831Z,95870.00
2019-02-10T09:14:46.057Z,95862.00
2019-02-10T09:17:17.210Z,95861.00
2019-02-10T09:19:48.373Z,95871.00
2019-02-10T09:22:20.721Z,95863.00
2019-02-10T09:24:51.825Z,95871.00
2019-02-10T09:27:23.430Z,95853.00
2019-02-10T09:29:54.877Z,95842.00
2019-02-10T09:32:27.215Z,95838.00
2019-02-10T09:34:58.795Z,95830.00
2019-02-10T09:37:29.962Z,95820.00
2019-02-10T09:40:01.730Z,95832.00
2019-02-10T09:42:33.892Z,95820.00
2019-02-10T09:45:05.667Z,95817.00
2019-02-10T09:47:37.179Z,95818.00
2019-02-10T09:50:12.718Z,95799.00
2019-02-10T09:52:44.285Z,95810.00
2019-02-10T09:55:16.462Z,95801.00
2019-02-10T09:57:47.616Z,95799.00
2019-02-10T10:00:18.626Z,95803.00
2019-02-10T10:02:49.882Z,95795.00
2019-02-10T10:05:21.054Z,95786.00
2019-02-10T10:07:52.565Z,95783.00
2019-02-10T10:10:23.857Z,95744.00
2019-02-10T10:12:55.418Z,95769.00
2019-02-10T10:15:26.724Z,95746.00
2019-02-10T10:17:58.307Z,95741.00
2019-02-10T10:20:29.895Z,95739.00
2019-02-10T10:23:01.018Z,95734.00
2019-02-10T10:25:34.870Z,95729.00
2019-02-10T10:28:06.087Z,95730.00
2019-02-10T10:30:37.754Z,95698.00
2019-02-10T10:33:09.346Z,95703.00
2019-02-10T10:35:40.905Z,95688.00
2019-02-10T10:38:12.232Z,95570.00
2019-02-10T10:40:43.402Z,95661.00
2019-02-10T10:43:14.913Z,95654.00
2019-02-10T10:45:46.401Z,95632.00
2019-02-10T10:48:18.026Z,95640.00
2019-02-10T10:50:50.083Z,95631.00
2019-02-10T10:53:21.545Z,95641.00
2019-02-10T10:55:53.091Z,95618.00
2019-02-10T10:58:24.651Z,95584.00
2019-02-10T11:00:56.204Z,95594.00
2019-02-10T11:03:27.410Z,95572.00
2019-02-10T11:05:58.496Z,95567.00
2019-02-10T11:08:30.073Z,95540.00
2019-02-10T11:11:01.522Z,95533.00
2019-02-10T11:13:32.599Z,95535.00
2019-02-10T11:16:03.811Z,95523.00
2019-02-10T11:18:35.223Z,95514.00
2019-02-10T11:21:06.397Z,95517.00
2019-02-10T11:23:37.814Z,95515.00
2019-02-10T11:26:09.374Z,95509.00
2019-02-10T11:28:41.366Z,95503.00
2019-02-10T11:31:12.481Z,95482.00
2019-02-10T11:33:44.226Z,95482.00
2019-02-10T11:36:15.332Z,95443.00
2019-02-10T11:38:46.618Z,95463.00
2019-02-10T11:41:17.864Z,95448.00
2019-02-10T11:43:49.257Z,95459.00
2019-02-10T11:46:20.366Z,95444.00
2019-02-10T11:48:51.517Z,95425.00
2019-02-10T11:51:22.694Z,95426.00
2019-02-10T11:54:04.170Z,95433.00
2019-02-10T11:56:35.414Z,95431.00
2019-02-10T11:59:06.739Z,95400.00
2019-02-10T12:01:37.829Z,95420.00
2019-02-10T12:04:09.342Z,95427.00
2019-02-10T12:06:40.446Z,95413.00
2019-02-10T12:09:11.746Z,95425.00
2019-02-10T12:11:43.248Z,95418.00
2019-02-10T12:14:14.470Z,95387.00
2019-02-10T12:16:45.598Z,95404.00
2019-02-10T12:19:16.898Z,95388.00
2019-02-10T12:21:48.059Z,95373.00
2019-02-10T12:24:19.230Z,95397.00
2019-02-10T12:26:50.340Z,95356.00
2019-02-10T12:29:21.488Z,95371.00
2019-02-10T12:31:52.710Z,95362.00
2019-02-10T12:34:23.909Z,95360.00
2019-02-10T12:36:55.087Z,95353.00
2019-02-10T12:39:26.427Z,95347.00
2019-02-10T12:41:57.614Z,95335.00
2019-02-10T12:44:28.758Z,95326.00
2019-02-10T12:46:59.969Z,95322.00
2019-02-10T12:49:31.318Z,95314.00
2019-02-10T12:52:02.562Z,95305.00
2019-02-10T12:54:33.778Z,95314.00
2019-02-10T12:57:05.362Z,95279.00
2019-02-10T12:59:37.021Z,95295.00
2019-02-10T13:02:08.404Z,95273.00
2019-02-10T13:04:39.674Z,95275.00
2019-02-10T13:07:10.696Z,95277.00
2019-02-10T13:09:41.905Z,95263.00
2019-02-10T13:12:12.993Z,95256.00
2019-02-10T13:14:44.329Z,95254.00
2019-02-10T13:17:15.557Z,95248.00
2019-02-10T13:19:46.668Z,95248.00
2019-02-10T13:22:17.971Z,95237.00
2019-02-10T13:24:49.262Z,95229.00
2019-02-10T13:27:20.492Z,95218.00
2019-02-10T13:29:53.087Z,95223.00
2019-02-10T13:32:24.535Z,95219.00
2019-02-10T13:34:55.770Z,95201.00
2019-02-10T13:37:27.060Z,95214.00
2019-02-10T13:39:58.225Z,95206.00
2019-02-10T13:42:29.537Z,95148.00
2019-02-10T13:45:00.786Z,95189.00
2019-02-10T13:47:31.821Z,95173.00
2019-02-10T13:50:02.989Z,95181.00
2019-02-10T13:52:34.597Z,95180.00
2019-02-10T13:55:06.465Z,95189.00
2019-02-10T13:57:37.847Z,95182.00
2019-02-10T14:00:16.242Z,95181.00
2019-02-10T14:02:47.614Z,95177.00
2019-02-10T14:05:18.910Z,95172.00
2019-02-10T14:07:51.012Z,95161.00
2019-02-10T14:10:25.712Z,95166.00
2019-02-10T14:13:01.291Z,95177.00
2019-02-10T14:15:32.694Z,95181.00
2019-02-10T14:18:04.053Z,95184.00
2019-02-10T14:20:35.290Z,95156.00
2019-02-10T14:23:06.477Z,95168.00
2019-02-10T14:25:37.548Z,95167.00
2019-02-10T14:28:08.706Z,95142.00
2019-02-10T14:30:40.006Z,95153.00
2019-02-10T14:33:11.019Z,95156.00
2019-02-10T14:35:44.717Z,95137.00
2019-02-10T14:38:15.988Z,95143.00
2019-02-10T14:40:47.125Z,95140.00
2019-02-10T14:43:18.474Z,95151.00
2019-02-10T14:45:49.710Z,95146.00
2019-02-10T14:48:21.033Z,95159.00
2019-02-10T14:50:52.259Z,95156.00
2019-02-10T14:53:23.440Z,95178.00
2019-02-10T14:55:54.984Z,95161.00
2019-02-10T14:58:26.258Z,95174.00
2019-02-10T15:00:57.419Z,95171.00
2019-02-10T15:03:28.510Z,95185.00
2019-02-10T15:06:00.162Z,95167.00
2019-02-10T15:08:31.248Z,95184.00
2019-02-10T15:11:02.662Z,95189.00
2019-02-10T15:13:33.814Z,95184.00
2019-02-10T15:16:05.254Z,95182.00
2019-02-10T15:18:36.335Z,95187.00
2019-02-10T15:21:07.663Z,95197.00
2019-02-10T15:23:39.193Z,95202.00
2019-02-10T15:26:10.559Z,95203.00
2019-02-10T15:28:42.456Z,95210.00
2019-02-10T15:31:13.603Z,95204.00
2019-02-10T15:33:45.083Z,95202.00
2019-02-10T15:36:16.757Z,95196.00
2019-02-10T15:38:48.755Z,95194.00
2019-02-10T15:41:19.814Z,95190.00
2019-02-10T15:43:50.896Z,95188.00
2019-02-10T15:46:22.446Z,95187.00
2019-02-10T15:48:53.567Z,95170.00
2019-02-10T15:51:35.619Z,95170.00
2019-02-10T15:53:57.782Z,95167.00
2019-02-10T15:56:28.922Z,95165.00
2019-02-10T15:59:00.217Z,95171.00
2019-02-10T16:01:31.965Z,95128.00
2019-02-10T16:04:02.974Z,95138.00
2019-02-10T16:06:34.276Z,95140.00
2019-02-10T16:09:06.415Z,95128.00
2019-02-10T16:11:39.407Z,95134.00
2019-02-10T16:14:10.765Z,95123.00
2019-02-10T16:16:42.002Z,95124.00
2019-02-10T16:19:13.147Z,95131.00
2019-02-10T16:21:44.595Z,95120.00
2019-02-10T16:24:15.710Z,95114.00
2019-02-10T16:26:46.927Z,95112.00
2019-02-10T16:29:18.315Z,95099.00
2019-02-10T16:31:49.477Z,95087.00
2019-02-10T16:34:20.765Z,95084.00
2019-02-10T16:36:52.184Z,95091.00
2019-02-10T16:39:23.447Z,95082.00
2019-02-10T16:41:54.604Z,95078.00
2019-02-10T16:44:25.651Z,95056.00
2019-02-10T16:46:56.773Z,95076.00
2019-02-10T16:49:28.000Z,95062.00
2019-02-10T16:51:59.634Z,95062.00
2019-02-10T16:54:30.727Z,95065.00
2019-02-10T16:57:02.154Z,95060.00
2019-02-10T16:59:33.819Z,95048.00
2019-02-10T17:02:05.045Z,95050.00
2019-02-10T17:04:36.778Z,95054.00
2019-02-10T17:07:07.978Z,95054.00
2019-02-10T17:09:39.058Z,95053.00
2019-02-10T17:12:10.155Z,95060.00
2019-02-10T17:14:41.554Z,95050.00
2019-02-10T17:17:12.663Z,95051.00
2019-02-10T17:19:43.831Z,95057.00
2019-02-10T17:22:15.051Z,95065.00
2019-02-10T17:24:46.226Z,95062.00
2019-02-10T17:27:17.472Z,95056.00
2019-02-10T17:29:48.638Z,95075.00
2019-02-10T17:32:19.889Z,95085.00
2019-02-10T17:34:50.963Z,95087.00
2019-02-10T17:37:22.190Z,95095.00
2019-02-10T17:39:53.426Z,95096.00
2019-02-10T17:42:24.834Z,95105.00
2019-02-10T17:44:55.946Z,95100.00
2019-02-10T17:47:27.294Z,95107.00
2019-02-10T17:49:58.779Z,95112.00
2019-02-10T17:52:32.001Z,95110.00
2019-02-10T17:55:02.971Z,95116.00
2019-02-10T17:57:35.286Z,95106.00
2019-02-10T18:00:07.353Z,95118.00
2019-02-10T18:02:39.127Z,95153.00
2019-02-10T18:05:10.499Z,95115.00
2019-02-10T18:07:41.750Z,95113.00
2019-02-10T18:10:13.220Z,95131.00
2019-02-10T18:12:44.596Z,95127.00
2019-02-10T18:15:47.030Z,95117.00
2019-02-10T18:18:46.619Z,95131.00
2019-02-10T18:21:29.153Z,95126.00
2019-02-10T18:24:39.736Z,95129.00
2019-02-10T18:27:45.343Z,95133.00
2019-02-10T18:30:33.334Z,95116.00
2019-02-10T18:33:18.519Z,95109.00
2019-02-10T18:36:02.352Z,95105.00
2019-02-10T18:38:45.194Z,95126.00
2019-02-10T18:41:22.947Z,95129.00
2019-02-10T18:44:19.226Z,95120.00
2019-02-10T18:47:08.110Z,95127.00
2019-02-10T18:49:58.344Z,95138.00
2019-02-10T18:52:48.678Z,95143.00
2019-02-10T18:55:38.756Z,95126.00
2019-02-10T18:58:25.241Z,95118.00
2019-02-10T19:01:05.346Z,95139.00
2019-02-10T19:03:58.606Z,95140.00
2019-02-10T19:06:47.255Z,95132.00
2019-02-10T19:09:28.598Z,95125.00
2019-02-10T19:12:11.924Z,95121.00
2019-02-10T19:15:02.189Z,95132.00
2019-02-10T19:17:52.473Z,95135.00
2019-02-10T19:20:33.115Z,95148.00
2019-02-10T19:23:19.470Z,95142.00
2019-02-10T19:26:23.182Z,95127.00
2019-02-10T19:29:09.740Z,95117.00
2019-02-10T19:31:59.748Z,95156.00
2019-02-10T19:34:55.744Z,95159.00
2019-02-10T19:37:44.982Z,95151.00
2019-02-10T19:40:53.403Z,95157.00
2019-02-10T19:43:43.797Z,95168.00
2019-02-10T19:46:31.852Z,95174.00
2019-02-10T19:49:12.612Z,94685.00
2019-02-10T19:51:53.593Z,95209.00
2019-02-10T19:54:43.078Z,95219.00
2019-02-10T19:57:39.868Z,95226.00
2019-02-10T20:00:35.931Z,95225.00
2019-02-10T20:03:21.168Z,95228.00
2019-02-10T20:06:04.011Z,95249.00
2019-02-10T20:08:51.349Z,95252.00
2019-02-10T20:11:32.744Z,95238.00
2019-02-10T20:14:29.356Z,95267.00
2019-02-10T20:17:22.357Z,95267.00
2019-02-10T20:20:11.756Z,95238.00
2019-02-10T20:22:50.473Z,95233.00
2019-02-10T20:25:46.797Z,95236.00
2019-02-10T20:28:37.001Z,95239.00
2019-02-10T20:31:42.569Z,95239.00
2019-02-10T20:34:31.389Z,95242.00
2019-02-10T20:37:10.515Z,95254.00
2019-02-10T20:39:54.089Z,95251.00
2019-02-10T20:42:32.087Z,95271.00
2019-02-10T20:45:31.180Z,95288.00
2019-02-10T20:48:10.589Z,95302.00
2019-02-10T20:51:00.680Z,95276.00
2019-02-10T20:53:46.635Z,95300.00
2019-02-10T20:56:22.994Z,95313.00
2019-02-10T20:59:00.488Z,95327.00
2019-02-10T21:01:49.559Z,95353.00
2019-02-10T21:04:38.391Z,95333.00
2019-02-10T21:07:15.489Z,95332.00
2019-02-10T21:10:04.799Z,95306.00
2019-02-10T21:13:00.781Z,95324.00
2019-02-10T21:15:45.263Z,95334.00
2019-02-10T21:18:38.611Z,95321.00
2019-02-10T21:21:31.659Z,95336.00
2019-02-10T21:24:09.486Z,95344.00
2019-02-10T21:26:57.392Z,95332.00
2019-02-10T21:29:42.169Z,95322.00
2019-02-10T21:32:35.590Z,95335.00
2019-02-10T21:35:29.955Z,95335.00
2019-02-10T21:38:07.118Z,95364.00
2019-02-10T21:40:51.725Z,95345.00
2019-02-10T21:43:30.754Z,95356.00
2019-02-10T21:46:22.805Z,95364.00
2019-02-10T21:49:00.202Z,95354.00
2019-02-10T21:51:31.448Z,95360.00
2019-02-10T21:54:02.695Z,95366.00
2019-02-10T21:56:33.799Z,95359.00
2019-02-10T21:59:05.359Z,95368.00
2019-02-10T22:01:36.450Z,95348.00
2019-02-10T22:04:07.691Z,95342.00
2019-02-10T22:06:38.944Z,95348.00
2019-02-10T22:09:10.084Z,95354.00
2019-02-10T22:11:41.277Z,95165.00
2019-02-10T22:14:12.916Z,95333.00
2019-02-10T22:16:44.092Z,95299.00
2019-02-10T22:19:15.282Z,95332.00
2019-02-10T22:21:46.453Z,95327.00
2019-02-10T22:24:17.663Z,95344.00
2019-02-10T22:26:48.716Z,95323.00
2019-02-10T22:29:19.920Z,95301.00
2019-02-10T22:31:51.122Z,95333.00
2019-02-10T22:34:22.254Z,95335.00
2019-02-10T22:36:53.361Z,95320.00
2019-02-10T22:39:24.553Z,95342.00
2019-02-10T22:41:55.649Z,95345.00
2019-02-10T22:44:26.806Z,95348.00
2019-02-10T22:46:57.892Z,95367.00
2019-02-10T22:49:29.097Z,95366.00
2019-02-10T22:52:00.616Z,95360.00
2019-02-10T22:54:31.729Z,95369.00
2019-02-10T22:57:02.976Z,95372.00
2019-02-10T22:59:34.326Z,95366.00
2019-02-10T23:02:06.286Z,95378.00
2019-02-10T23:04:37.524Z,95374.00
2019-02-10T23:07:09.286Z,95374.00
2019-02-10T23:09:40.733Z,95378.00
2019-02-10T23:12:11.947Z,95341.00
2019-02-10T23:14:43.194Z,95354.00
2019-02-10T23:17:14.366Z,95371.00
2019-02-10T23:19:45.717Z,95370.00
2019-02-10T23:22:17.174Z,95383.00
2019-02-10T23:24:48.302Z,95380.00
2019-02-10T23:27:19.419Z,95375.00
2019-02-10T23:29:50.603Z,95379.00
2019-02-10T23:32:22.053Z,95374.00
2019-02-10T23:34:53.178Z,95378.00
2019-02-10T23:37:24.276Z,95380.00
2019-02-10T23:39:55.781Z,95383.00
2019-02-10T23:42:26.969Z,95390.00
2019-02-10T23:44:58.030Z,95385.00
2019-02-10T23:47:29.050Z,95387.00
2019-02-10T23:50:00.460Z,95393.00
2019-02-10T23:52:31.902Z,95390.00
2019-02-10T23:55:03.021Z,95407.00
2019-02-10T23:57:34.450Z,95406.00
